Time;durP1;ratioP1;P1;durP2;ratioP2;P2;SDS_P1;SDS_P2;PMS_P1;PMS_P2;Temp;Humidity;BMP_temperature;BMP_pressure;BME280_temperature;BME280_humidity;BME280_pressure;Samples;Min_cycle;Max_cycle;Signal;HPM_P1;HPM_P2
2023/09/28 00:01:02;;;;;;;3.50;2.47;;;;;;;;;;5009670;28;20462;-55
2023/09/28 00:03:29;;;;;;;5.00;2.77;;;;;;;;;;5009931;28;20897;-57
2023/09/28 00:05:56;;;;;;;3.23;2.53;;;;;;;;;;5013067;28;20446;-55
2023/09/28 00:08:23;;;;;;;5.37;2.87;;;;;;;;;;5012726;28;21046;-55
2023/09/28 00:10:50;;;;;;;4.63;2.93;;;;;;;;;;5013279;28;20558;-55
2023/09/28 00:13:18;;;;;;;4.70;2.30;;;;;;;;;;5012795;28;20509;-56
2023/09/28 00:15:46;;;;;;;3.90;2.47;;;;;;;;;;5012938;28;21026;-55
2023/09/28 00:18:14;;;;;;;4.10;2.37;;;;;;;;;;5013351;28;20451;-55
2023/09/28 00:20:40;;;;;;;6.80;2.93;;;;;;;;;;5013133;28;20558;-55
2023/09/28 00:23:07;;;;;;;3.93;2.67;;;;;;;;;;5013282;28;20935;-55
2023/09/28 00:25:33;;;;;;;6.70;3.60;;;;;;;;;;5013733;28;20546;-55
2023/09/28 00:28:00;;;;;;;4.90;3.13;;;;;;;;;;5013123;28;20478;-57
2023/09/28 00:30:28;;;;;;;5.50;3.57;;;;;;;;;;5012536;28;20582;-55
2023/09/28 00:32:56;;;;;;;5.00;3.00;;;;;;;;;;5012540;28;20954;-55
2023/09/28 00:35:23;;;;;;;4.43;2.93;;;;;;;;;;5012673;28;20534;-56
2023/09/28 00:37:50;;;;;;;5.10;2.67;;;;;;;;;;5012900;28;20951;-55
2023/09/28 00:40:18;;;;;;;2.60;2.20;;;;;;;;;;5012402;28;20533;-57
2023/09/28 00:42:46;;;;;;;3.03;2.37;;;;;;;;;;5012552;28;20474;-55
2023/09/28 00:45:12;;;;;;;4.63;2.80;;;;;;;;;;5013120;28;20526;-55
2023/09/28 00:47:42;;;;;;;4.07;2.70;;;;;;;;;;5013355;28;20453;-57
2023/09/28 00:50:10;;;;;;;3.80;2.57;;;;;;;;;;5012037;28;20537;-55
2023/09/28 00:52:38;;;;;;;3.60;2.77;;;;;;;;;;5012346;28;20535;-56
2023/09/28 00:55:05;;;;;;;3.70;2.57;;;;;;;;;;5012613;28;20443;-55
2023/09/28 00:57:33;;;;;;;5.50;2.40;;;;;;;;;;5012445;28;20450;-56
2023/09/28 01:00:01;;;;;;;3.20;2.23;;;;;;;;;;5012045;28;20862;-55
2023/09/28 01:02:29;;;;;;;4.20;2.63;;;;;;;;;;5012762;28;20478;-55
2023/09/28 01:04:57;;;;;;;5.00;2.43;;;;;;;;;;5011995;28;20461;-57
2023/09/28 01:07:29;;;;;;;3.37;2.70;;;;;;;;;;5012557;28;20446;-56
2023/09/28 01:09:57;;;;;;;4.63;3.00;;;;;;;;;;5011984;28;20453;-57
2023/09/28 01:12:24;;;;;;;4.87;3.30;;;;;;;;;;5012198;28;20443;-56
2023/09/28 01:14:56;;;;;;;5.27;2.80;;;;;;;;;;5012239;28;20490;-55
2023/09/28 01:17:23;;;;;;;4.60;2.90;;;;;;;;;;5011080;28;20447;-55
2023/09/28 01:19:50;;;;;;;3.43;2.67;;;;;;;;;;5011899;28;20448;-55
2023/09/28 01:22:18;;;;;;;2.90;2.37;;;;;;;;;;5012224;28;20498;-56
2023/09/28 01:24:45;;;;;;;3.87;2.80;;;;;;;;;;5011774;28;20470;-55
2023/09/28 01:27:12;;;;;;;3.20;2.40;;;;;;;;;;5012124;28;20455;-55
2023/09/28 01:29:38;;;;;;;3.07;2.47;;;;;;;;;;5012090;28;21161;-55
2023/09/28 01:32:05;;;;;;;3.83;2.70;;;;;;;;;;5011803;28;20488;-56
2023/09/28 01:34:32;;;;;;;3.60;2.60;;;;;;;;;;5011533;28;20522;-55
2023/09/28 01:36:59;;;;;;;3.50;2.50;;;;;;;;;;5011735;28;20881;-56
2023/09/28 01:39:27;;;;;;;4.40;2.67;;;;;;;;;;5011797;28;20530;-55
2023/09/28 01:41:54;;;;;;;4.47;2.93;;;;;;;;;;5011326;28;20481;-56
2023/09/28 01:44:20;;;;;;;6.63;4.50;;;;;;;;;;5011692;28;20970;-55
2023/09/28 01:46:47;;;;;;;3.30;2.40;;;;;;;;;;5011799;28;20493;-55
2023/09/28 01:49:14;;;;;;;4.13;2.60;;;;;;;;;;5010945;28;20486;-56
2023/09/28 01:51:41;;;;;;;5.63;2.90;;;;;;;;;;5011173;28;20493;-55
2023/09/28 01:54:07;;;;;;;4.40;2.63;;;;;;;;;;5011698;28;21062;-55
2023/09/28 01:56:36;;;;;;;4.50;2.80;;;;;;;;;;5011122;28;20515;-55
2023/09/28 01:59:02;;;;;;;6.13;2.87;;;;;;;;;;5011227;28;20479;-55
2023/09/28 02:01:31;;;;;;;4.37;2.87;;;;;;;;;;5010849;28;20462;-55
2023/09/28 02:03:58;;;;;;;5.93;2.60;;;;;;;;;;5011737;28;20513;-58
2023/09/28 02:06:25;;;;;;;3.57;2.90;;;;;;;;;;5011087;28;20462;-54
2023/09/28 02:08:51;;;;;;;4.07;2.00;;;;;;;;;;5011514;28;20903;-55
2023/09/28 02:11:19;;;;;;;4.40;2.20;;;;;;;;;;5010885;28;21013;-55
2023/09/28 02:13:46;;;;;;;5.47;2.87;;;;;;;;;;5011038;28;21077;-54
2023/09/28 02:16:13;;;;;;;4.30;2.80;;;;;;;;;;5011258;28;20475;-57
2023/09/28 02:18:42;;;;;;;7.60;2.80;;;;;;;;;;5010901;28;20888;-56
2023/09/28 02:21:14;;;;;;;4.33;2.60;;;;;;;;;;5010276;28;20474;-56
2023/09/28 02:23:40;;;;;;;3.17;2.63;;;;;;;;;;5011090;28;20443;-55
2023/09/28 02:26:07;;;;;;;3.40;2.33;;;;;;;;;;5010788;28;20442;-55
2023/09/28 02:28:34;;;;;;;3.20;2.63;;;;;;;;;;5010694;28;20456;-55
2023/09/28 02:31:08;;;;;;;2.90;2.40;;;;;;;;;;5010740;28;20459;-55
2023/09/28 02:33:35;;;;;;;3.33;2.40;;;;;;;;;;5010718;28;20566;-55
2023/09/28 02:36:02;;;;;;;3.20;2.60;;;;;;;;;;5010549;28;20550;-55
2023/09/28 02:38:29;;;;;;;2.90;2.50;;;;;;;;;;5010647;28;20451;-55
2023/09/28 02:40:56;;;;;;;3.80;2.50;;;;;;;;;;5010300;28;20475;-55
2023/09/28 02:43:22;;;;;;;3.90;2.70;;;;;;;;;;5010637;28;20530;-55
2023/09/28 02:45:50;;;;;;;4.20;2.70;;;;;;;;;;5010636;28;20529;-56
2023/09/28 02:48:17;;;;;;;5.23;3.13;;;;;;;;;;5010321;28;20447;-55
2023/09/28 02:50:45;;;;;;;2.73;2.43;;;;;;;;;;5010186;28;20467;-55
2023/09/28 02:53:11;;;;;;;4.53;2.77;;;;;;;;;;5010025;28;20482;-55
2023/09/28 02:55:38;;;;;;;2.77;1.93;;;;;;;;;;5010624;28;20455;-54
2023/09/28 02:58:04;;;;;;;3.00;2.23;;;;;;;;;;5010233;28;20975;-55
2023/09/28 03:00:33;;;;;;;4.03;2.60;;;;;;;;;;5010017;28;20466;-55
2023/09/28 03:03:06;;;;;;;3.80;2.13;;;;;;;;;;5010663;28;20451;-55
2023/09/28 03:05:37;;;;;;;4.57;2.63;;;;;;;;;;5003913;28;20497;-55
2023/09/28 03:08:04;;;;;;;3.50;2.67;;;;;;;;;;5010616;28;20458;-55
2023/09/28 03:10:32;;;;;;;4.50;2.87;;;;;;;;;;5003025;28;21007;-55
2023/09/28 03:12:58;;;;;;;3.40;2.60;;;;;;;;;;5010102;28;20451;-55
2023/09/28 03:15:25;;;;;;;4.83;3.00;;;;;;;;;;5010709;28;20844;-54
2023/09/28 03:17:52;;;;;;;2.80;2.30;;;;;;;;;;5010105;28;20447;-55
2023/09/28 03:20:21;;;;;;;2.97;2.20;;;;;;;;;;5009401;28;20474;-55
2023/09/28 03:22:49;;;;;;;4.37;2.27;;;;;;;;;;5009083;28;20485;-56
2023/09/28 03:25:20;;;;;;;2.70;1.80;;;;;;;;;;5009195;28;20446;-55
2023/09/28 03:27:49;;;;;;;3.50;2.60;;;;;;;;;;5009166;28;20455;-56
2023/09/28 03:30:16;;;;;;;4.30;2.93;;;;;;;;;;5008283;28;20485;-54
2023/09/28 03:32:43;;;;;;;4.33;2.50;;;;;;;;;;5008889;28;20542;-55
2023/09/28 03:35:11;;;;;;;4.10;2.20;;;;;;;;;;5008678;28;20489;-55
2023/09/28 03:37:38;;;;;;;3.53;1.83;;;;;;;;;;5009533;28;20449;-55
2023/09/28 03:40:10;;;;;;;3.37;2.60;;;;;;;;;;5009564;28;20990;-55
2023/09/28 03:42:38;;;;;;;2.77;2.13;;;;;;;;;;5013218;28;20454;-55
2023/09/28 03:45:08;;;;;;;3.33;2.03;;;;;;;;;;5013186;28;20439;-58
2023/09/28 03:47:35;;;;;;;2.60;1.90;;;;;;;;;;5012466;28;20455;-55
2023/09/28 03:50:03;;;;;;;5.90;3.10;;;;;;;;;;5012138;28;20564;-55
2023/09/28 03:52:31;;;;;;;3.20;2.63;;;;;;;;;;5012303;28;20517;-55
2023/09/28 03:54:58;;;;;;;3.80;2.40;;;;;;;;;;5012694;28;20492;-56
2023/09/28 03:57:25;;;;;;;5.90;2.53;;;;;;;;;;5012673;28;20478;-56
2023/09/28 03:59:53;;;;;;;3.50;3.00;;;;;;;;;;5012086;28;21048;-55
2023/09/28 04:02:20;;;;;;;3.43;2.47;;;;;;;;;;5013379;28;21046;-55
2023/09/28 04:04:47;;;;;;;4.17;2.53;;;;;;;;;;5013685;28;20443;-55
2023/09/28 04:07:14;;;;;;;4.17;2.73;;;;;;;;;;5013544;28;20531;-56
2023/09/28 04:09:42;;;;;;;3.30;2.57;;;;;;;;;;5013298;28;20959;-56
2023/09/28 04:12:09;;;;;;;2.83;2.20;;;;;;;;;;5013330;28;20538;-55
2023/09/28 04:14:37;;;;;;;5.43;2.37;;;;;;;;;;5013293;28;21145;-54
2023/09/28 04:17:05;;;;;;;4.47;2.27;;;;;;;;;;5013264;28;20558;-55
2023/09/28 04:19:32;;;;;;;4.10;2.73;;;;;;;;;;4995349;28;20479;-54
2023/09/28 04:21:59;;;;;;;3.67;2.50;;;;;;;;;;5013231;28;20550;-57
2023/09/28 04:24:26;;;;;;;3.20;2.30;;;;;;;;;;5012933;28;20539;-55
2023/09/28 04:26:57;;;;;;;3.40;2.20;;;;;;;;;;5013458;28;20542;-55
2023/09/28 04:29:25;;;;;;;2.97;2.27;;;;;;;;;;5013339;28;20538;-54
2023/09/28 04:31:53;;;;;;;3.10;2.23;;;;;;;;;;5012718;28;20527;-54
2023/09/28 04:34:22;;;;;;;3.80;2.53;;;;;;;;;;5012522;28;20601;-55
2023/09/28 04:36:50;;;;;;;2.83;1.90;;;;;;;;;;5013248;28;20526;-54
2023/09/28 04:39:17;;;;;;;4.63;2.33;;;;;;;;;;5012294;28;20461;-54
2023/09/28 04:41:45;;;;;;;4.43;2.33;;;;;;;;;;5031718;23;20496;-55
2023/09/28 04:44:12;;;;;;;3.50;2.40;;;;;;;;;;5032479;28;20470;-56
2023/09/28 04:46:39;;;;;;;4.30;2.33;;;;;;;;;;5022530;28;20546;-55
2023/09/28 04:49:08;;;;;;;4.50;2.40;;;;;;;;;;5022272;28;20529;-55
2023/09/28 04:51:36;;;;;;;4.97;2.20;;;;;;;;;;5019254;28;20466;-56
2023/09/28 04:54:04;;;;;;;3.07;2.27;;;;;;;;;;5002535;28;20562;-57
2023/09/28 04:56:32;;;;;;;6.00;3.10;;;;;;;;;;5012342;28;20443;-57
2023/09/28 04:59:00;;;;;;;4.73;2.60;;;;;;;;;;5012614;28;20449;-56
2023/09/28 05:01:27;;;;;;;5.13;2.80;;;;;;;;;;5016118;28;20561;-56
2023/09/28 05:03:55;;;;;;;3.27;2.40;;;;;;;;;;5015947;28;20526;-58
2023/09/28 05:06:24;;;;;;;3.17;2.70;;;;;;;;;;5012525;28;20906;-55
2023/09/28 05:08:51;;;;;;;3.30;2.13;;;;;;;;;;5014156;28;20498;-55
2023/09/28 05:11:18;;;;;;;3.40;2.50;;;;;;;;;;5011714;28;20542;-56
2023/09/28 05:13:45;;;;;;;4.20;2.57;;;;;;;;;;5012092;28;20477;-57
2023/09/28 05:16:13;;;;;;;3.07;2.30;;;;;;;;;;5015770;28;20474;-56
2023/09/28 05:18:40;;;;;;;3.90;2.60;;;;;;;;;;5015952;28;20559;-56
2023/09/28 05:21:07;;;;;;;4.27;2.60;;;;;;;;;;5011681;28;20565;-56
2023/09/28 05:23:36;;;;;;;5.70;3.43;;;;;;;;;;5012968;28;20576;-56
2023/09/28 05:26:03;;;;;;;5.03;3.20;;;;;;;;;;5011369;28;20428;-55
2023/09/28 05:28:30;;;;;;;3.77;2.87;;;;;;;;;;5011281;28;20443;-55
2023/09/28 05:30:58;;;;;;;4.17;2.30;;;;;;;;;;5013250;28;20833;-55
2023/09/28 05:33:25;;;;;;;3.70;2.27;;;;;;;;;;5009789;28;21737;-55
2023/09/28 05:35:52;;;;;;;5.13;2.73;;;;;;;;;;5011528;28;20614;-56
2023/09/28 05:38:19;;;;;;;3.67;2.57;;;;;;;;;;5013196;28;20486;-57
2023/09/28 05:40:48;;;;;;;4.30;2.00;;;;;;;;;;5010857;28;20499;-57
2023/09/28 05:43:15;;;;;;;4.00;2.40;;;;;;;;;;5010074;28;20447;-58
2023/09/28 05:45:42;;;;;;;3.57;2.30;;;;;;;;;;5012920;28;20450;-56
2023/09/28 05:48:10;;;;;;;3.80;2.47;;;;;;;;;;5013454;28;20447;-55
2023/09/28 05:50:38;;;;;;;2.73;2.00;;;;;;;;;;5012797;28;20479;-56
2023/09/28 05:53:05;;;;;;;3.60;1.90;;;;;;;;;;5014354;28;20505;-58
2023/09/28 05:55:32;;;;;;;2.80;2.03;;;;;;;;;;5008504;28;20894;-57
2023/09/28 05:58:01;;;;;;;5.00;2.57;;;;;;;;;;5010140;28;20467;-56
2023/09/28 06:00:28;;;;;;;3.00;2.70;;;;;;;;;;5012009;28;21056;-56
2023/09/28 06:02:56;;;;;;;3.47;2.03;;;;;;;;;;5007957;28;20529;-58
2023/09/28 06:05:23;;;;;;;4.00;2.60;;;;;;;;;;5005820;28;20800;-56
2023/09/28 06:07:50;;;;;;;2.60;2.13;;;;;;;;;;5008528;28;20449;-56
2023/09/28 06:10:17;;;;;;;3.50;2.43;;;;;;;;;;5007845;28;20851;-57
2023/09/28 06:12:45;;;;;;;4.57;2.20;;;;;;;;;;5010078;28;20860;-56
2023/09/28 06:15:14;;;;;;;5.10;2.40;;;;;;;;;;5007778;28;20511;-58
2023/09/28 06:17:42;;;;;;;4.30;2.70;;;;;;;;;;5007938;28;20846;-57
2023/09/28 06:20:09;;;;;;;4.00;2.33;;;;;;;;;;5007483;28;20459;-56
2023/09/28 06:22:36;;;;;;;3.17;2.47;;;;;;;;;;5007961;28;20443;-57
2023/09/28 06:25:04;;;;;;;3.67;2.70;;;;;;;;;;5004480;28;20981;-57
2023/09/28 06:27:32;;;;;;;2.67;2.13;;;;;;;;;;5002933;28;20459;-56
2023/09/28 06:29:59;;;;;;;2.63;2.20;;;;;;;;;;5007286;28;20505;-59
2023/09/28 06:32:28;;;;;;;2.93;2.43;;;;;;;;;;5007183;28;20498;-59
2023/09/28 06:34:55;;;;;;;4.13;2.80;;;;;;;;;;5007420;28;20562;-57
2023/09/28 06:37:23;;;;;;;2.90;2.20;;;;;;;;;;5006870;28;21030;-57
2023/09/28 06:39:50;;;;;;;5.37;3.03;;;;;;;;;;5009865;28;20858;-58
2023/09/28 06:42:17;;;;;;;3.83;2.20;;;;;;;;;;5007068;28;20932;-59
2023/09/28 06:44:45;;;;;;;3.40;2.77;;;;;;;;;;5008728;28;20493;-56
2023/09/28 06:47:12;;;;;;;7.77;3.60;;;;;;;;;;5012912;28;20450;-56
2023/09/28 06:49:40;;;;;;;3.00;2.60;;;;;;;;;;5008599;28;20853;-58
2023/09/28 06:52:08;;;;;;;5.43;2.53;;;;;;;;;;5007709;28;20719;-60
2023/09/28 06:54:36;;;;;;;5.03;3.00;;;;;;;;;;5011779;28;20510;-57
2023/09/28 06:57:03;;;;;;;6.60;2.87;;;;;;;;;;5010232;28;20451;-57
2023/09/28 06:59:31;;;;;;;3.87;2.90;;;;;;;;;;5015634;28;20830;-57
2023/09/28 07:01:59;;;;;;;3.80;2.50;;;;;;;;;;5010766;28;20467;-58
2023/09/28 07:04:27;;;;;;;3.53;2.40;;;;;;;;;;5010606;28;20894;-57
2023/09/28 07:06:55;;;;;;;3.40;2.30;;;;;;;;;;5009943;28;20956;-55
2023/09/28 07:09:22;;;;;;;2.97;2.13;;;;;;;;;;5011222;28;20506;-57
2023/09/28 07:11:50;;;;;;;3.70;2.57;;;;;;;;;;5009945;28;20820;-57
2023/09/28 07:14:17;;;;;;;14.17;4.30;;;;;;;;;;5016572;28;20446;-55
2023/09/28 07:16:44;;;;;;;15.93;7.40;;;;;;;;;;5021136;28;20485;-56
2023/09/28 07:19:12;;;;;;;19.33;7.93;;;;;;;;;;5014114;28;20505;-57
2023/09/28 07:21:39;;;;;;;15.70;7.03;;;;;;;;;;5017627;28;20493;-57
2023/09/28 07:24:08;;;;;;;12.73;5.57;;;;;;;;;;5016261;28;20474;-56
2023/09/28 07:26:35;;;;;;;9.87;4.40;;;;;;;;;;5013695;28;20526;-56
2023/09/28 07:29:04;;;;;;;13.73;5.97;;;;;;;;;;5025049;28;20451;-56
2023/09/28 07:31:31;;;;;;;8.90;4.50;;;;;;;;;;5018502;28;20471;-57
2023/09/28 07:33:58;;;;;;;4.13;2.97;;;;;;;;;;5019452;28;20450;-54
2023/09/28 07:36:26;;;;;;;4.30;3.37;;;;;;;;;;5014509;28;20909;-56
2023/09/28 07:38:53;;;;;;;4.23;2.47;;;;;;;;;;5014185;28;20447;-56
2023/09/28 07:41:22;;;;;;;3.90;3.00;;;;;;;;;;5013260;28;20851;-57
2023/09/28 07:43:49;;;;;;;5.73;2.80;;;;;;;;;;5014068;28;20471;-56
2023/09/28 07:46:16;;;;;;;5.03;3.10;;;;;;;;;;5013821;28;20457;-55
2023/09/28 07:48:43;;;;;;;4.10;3.10;;;;;;;;;;5013329;28;20498;-55
2023/09/28 07:51:11;;;;;;;7.93;3.20;;;;;;;;;;5010359;28;20520;-55
2023/09/28 07:53:38;;;;;;;5.10;3.07;;;;;;;;;;5016141;28;20447;-58
2023/09/28 07:56:06;;;;;;;5.67;3.00;;;;;;;;;;5013175;28;20511;-57
2023/09/28 07:58:34;;;;;;;7.27;4.20;;;;;;;;;;5015050;28;20495;-57
2023/09/28 08:01:02;;;;;;;6.60;3.70;;;;;;;;;;5012922;28;20467;-57
2023/09/28 08:03:29;;;;;;;6.60;4.07;;;;;;;;;;5013191;28;20543;-56
2023/09/28 08:05:57;;;;;;;4.70;3.43;;;;;;;;;;5012710;28;20435;-55
2023/09/28 08:08:25;;;;;;;8.03;3.30;;;;;;;;;;5013589;28;20501;-56
2023/09/28 08:10:53;;;;;;;4.20;3.03;;;;;;;;;;5013252;28;20466;-55
2023/09/28 08:13:20;;;;;;;4.90;3.37;;;;;;;;;;5013287;28;20443;-55
2023/09/28 08:15:48;;;;;;;4.87;3.20;;;;;;;;;;5012869;28;20601;-56
2023/09/28 08:18:16;;;;;;;3.13;2.20;;;;;;;;;;5011526;28;21000;-57
2023/09/28 08:20:44;;;;;;;3.30;2.20;;;;;;;;;;5011803;28;20463;-57
2023/09/28 08:23:11;;;;;;;3.47;2.50;;;;;;;;;;5013032;28;20458;-58
2023/09/28 08:25:38;;;;;;;4.10;2.50;;;;;;;;;;5012562;28;20519;-59
2023/09/28 08:28:07;;;;;;;4.77;2.80;;;;;;;;;;5013279;28;20447;-58
2023/09/28 08:30:34;;;;;;;4.70;3.00;;;;;;;;;;5013047;28;20550;-57
2023/09/28 08:33:02;;;;;;;3.63;2.57;;;;;;;;;;5013198;28;20443;-57
2023/09/28 08:35:31;;;;;;;8.20;2.87;;;;;;;;;;5012850;28;20483;-57
2023/09/28 08:37:59;;;;;;;3.03;2.07;;;;;;;;;;5013433;28;20500;-59
2023/09/28 08:40:26;;;;;;;3.73;2.50;;;;;;;;;;5012656;28;20983;-59
2023/09/28 08:42:57;;;;;;;4.90;2.30;;;;;;;;;;5013256;28;20513;-58
2023/09/28 08:45:24;;;;;;;4.23;3.07;;;;;;;;;;5012794;28;20444;-56
2023/09/28 08:47:52;;;;;;;3.03;2.57;;;;;;;;;;5012733;28;20431;-57
2023/09/28 08:50:24;;;;;;;5.10;3.20;;;;;;;;;;5012405;28;20467;-55
2023/09/28 08:52:53;;;;;;;6.13;3.03;;;;;;;;;;5005828;28;20518;-59
2023/09/28 08:55:22;;;;;;;3.47;2.83;;;;;;;;;;5004984;28;20910;-57
2023/09/28 08:57:50;;;;;;;3.57;3.00;;;;;;;;;;5012757;28;20454;-55
2023/09/28 09:00:22;;;;;;;6.70;3.10;;;;;;;;;;5008119;28;20475;-58
2023/09/28 09:02:50;;;;;;;4.63;2.80;;;;;;;;;;5011830;28;20539;-58
2023/09/28 09:05:17;;;;;;;6.60;3.20;;;;;;;;;;5011226;28;20870;-58
2023/09/28 09:07:46;;;;;;;7.43;3.53;;;;;;;;;;5011264;28;20486;-58
2023/09/28 09:10:14;;;;;;;10.50;3.40;;;;;;;;;;5010799;28;20447;-57
2023/09/28 09:12:41;;;;;;;5.23;3.00;;;;;;;;;;5012090;28;20471;-58
2023/09/28 09:15:09;;;;;;;3.87;2.77;;;;;;;;;;5011190;28;20561;-59
2023/09/28 09:17:37;;;;;;;5.30;2.80;;;;;;;;;;5008525;28;20824;-55
2023/09/28 09:20:08;;;;;;;5.00;3.10;;;;;;;;;;5011177;28;20451;-57
2023/09/28 09:22:36;;;;;;;3.90;2.90;;;;;;;;;;5012431;28;20526;-56
2023/09/28 09:25:05;;;;;;;4.00;2.87;;;;;;;;;;5012020;28;20443;-57
2023/09/28 09:27:33;;;;;;;9.80;4.73;;;;;;;;;;5010901;28;20476;-59
2023/09/28 09:30:05;;;;;;;3.60;2.47;;;;;;;;;;5011444;28;20442;-58
2023/09/28 09:32:32;;;;;;;3.97;2.83;;;;;;;;;;5010732;28;20443;-57
2023/09/28 09:35:00;;;;;;;5.60;2.30;;;;;;;;;;5011155;28;20497;-57
2023/09/28 09:37:27;;;;;;;4.57;2.60;;;;;;;;;;5012932;28;20550;-57
2023/09/28 09:40:10;;;;;;;7.00;2.70;;;;;;;;;;5012641;28;20512;-57
2023/09/28 09:42:39;;;;;;;6.93;3.67;;;;;;;;;;5009514;28;20930;-58
2023/09/28 09:45:07;;;;;;;4.40;2.90;;;;;;;;;;5011561;28;20481;-55
2023/09/28 09:47:35;;;;;;;3.93;3.10;;;;;;;;;;5011897;28;20446;-56
2023/09/28 09:50:03;;;;;;;5.40;3.20;;;;;;;;;;5010697;28;20450;-56
2023/09/28 09:52:30;;;;;;;9.33;4.93;;;;;;;;;;5010890;28;20458;-57
2023/09/28 09:54:57;;;;;;;3.93;2.60;;;;;;;;;;5011257;28;20443;-58
2023/09/28 09:57:27;;;;;;;4.33;3.20;;;;;;;;;;5011428;28;20862;-55
2023/09/28 09:59:57;;;;;;;4.40;3.33;;;;;;;;;;5011173;28;20538;-58
2023/09/28 10:02:25;;;;;;;5.63;3.00;;;;;;;;;;5017906;28;20481;-57
2023/09/28 10:04:57;;;;;;;4.07;3.00;;;;;;;;;;5011382;28;20941;-58
2023/09/28 10:07:29;;;;;;;3.70;2.50;;;;;;;;;;5010990;28;20450;-58
2023/09/28 10:09:57;;;;;;;5.70;3.23;;;;;;;;;;5009871;28;20458;-57
2023/09/28 10:12:25;;;;;;;3.83;3.00;;;;;;;;;;5010103;28;20451;-56
2023/09/28 10:14:56;;;;;;;3.23;2.60;;;;;;;;;;5010064;28;20797;-57
2023/09/28 10:17:26;;;;;;;3.60;2.80;;;;;;;;;;5010151;28;20987;-56
2023/09/28 10:19:54;;;;;;;4.07;2.90;;;;;;;;;;5010647;28;20833;-57
2023/09/28 10:22:22;;;;;;;3.50;2.77;;;;;;;;;;5010731;28;20498;-56
2023/09/28 10:24:49;;;;;;;3.90;2.40;;;;;;;;;;5010517;28;20451;-58
2023/09/28 10:27:16;;;;;;;3.90;2.60;;;;;;;;;;5014641;28;20907;-55
2023/09/28 10:29:44;;;;;;;3.97;2.73;;;;;;;;;;5004843;28;20820;-57
2023/09/28 10:32:15;;;;;;;2.70;2.20;;;;;;;;;;5008698;28;20491;-57
2023/09/28 10:34:46;;;;;;;4.43;2.73;;;;;;;;;;5011106;28;20454;-55
2023/09/28 10:37:23;;;;;;;3.73;2.93;;;;;;;;;;5017509;28;20483;-57
2023/09/28 10:39:51;;;;;;;3.37;2.77;;;;;;;;;;5010777;28;20538;-56
2023/09/28 10:42:19;;;;;;;3.80;2.70;;;;;;;;;;5044535;23;20578;-86
2023/09/28 10:44:47;;;;;;;3.63;2.70;;;;;;;;;;5023688;28;20498;-86
2023/09/28 10:47:14;;;;;;;3.80;2.30;;;;;;;;;;5023721;28;20530;-86
2023/09/28 10:49:44;;;;;;;5.30;2.90;;;;;;;;;;5025363;28;20514;-86
2023/09/28 10:52:12;;;;;;;3.43;2.63;;;;;;;;;;5034162;28;20481;-86
2023/09/28 10:54:39;;;;;;;3.13;2.40;;;;;;;;;;5033236;28;20866;-86
2023/09/28 10:57:07;;;;;;;6.93;2.87;;;;;;;;;;5030693;23;20491;-54
2023/09/28 10:59:37;;;;;;;4.43;2.40;;;;;;;;;;5010177;28;20451;-53
2023/09/28 11:02:05;;;;;;;4.40;2.90;;;;;;;;;;5010181;28;20967;-54
2023/09/28 11:04:32;;;;;;;4.70;3.00;;;;;;;;;;5008270;28;20835;-54
2023/09/28 11:07:01;;;;;;;3.00;2.17;;;;;;;;;;5010160;28;20490;-53
2023/09/28 11:09:31;;;;;;;4.57;3.20;;;;;;;;;;5009332;28;20481;-54
2023/09/28 11:11:58;;;;;;;4.40;3.13;;;;;;;;;;5009041;28;20467;-54
2023/09/28 11:14:26;;;;;;;3.60;2.70;;;;;;;;;;5007927;28;20501;-54
2023/09/28 11:16:53;;;;;;;4.93;2.67;;;;;;;;;;5009606;28;20478;-54
2023/09/28 11:19:22;;;;;;;4.63;2.50;;;;;;;;;;5009260;28;20475;-54
2023/09/28 11:21:50;;;;;;;4.30;3.10;;;;;;;;;;5009062;28;21085;-54
2023/09/28 11:24:19;;;;;;;3.63;2.60;;;;;;;;;;5010109;28;20574;-54
2023/09/28 11:26:46;;;;;;;3.53;2.93;;;;;;;;;;5010449;28;21031;-54
2023/09/28 11:29:13;;;;;;;3.60;2.70;;;;;;;;;;5009883;28;21018;-53
2023/09/28 11:31:50;;;;;;;4.93;2.73;;;;;;;;;;5009853;28;20971;-53
2023/09/28 11:34:28;;;;;;;3.97;2.90;;;;;;;;;;5008708;28;20934;-53
2023/09/28 11:36:56;;;;;;;3.80;2.73;;;;;;;;;;5009343;28;20557;-53
2023/09/28 11:39:26;;;;;;;8.83;3.03;;;;;;;;;;5009428;28;20443;-53
2023/09/28 11:41:57;;;;;;;3.97;2.70;;;;;;;;;;5009318;28;20988;-54
2023/09/28 11:44:26;;;;;;;3.73;2.83;;;;;;;;;;5009863;28;20478;-54
2023/09/28 11:46:54;;;;;;;4.00;2.60;;;;;;;;;;5006913;28;20538;-55
2023/09/28 11:49:22;;;;;;;4.63;3.03;;;;;;;;;;5009448;28;20447;-54
2023/09/28 11:51:50;;;;;;;8.30;3.00;;;;;;;;;;5004515;28;20509;-54
2023/09/28 11:54:18;;;;;;;3.53;3.17;;;;;;;;;;5007847;28;20498;-54
2023/09/28 11:56:46;;;;;;;4.60;3.10;;;;;;;;;;5008695;28;20479;-54
2023/09/28 11:59:15;;;;;;;3.33;2.70;;;;;;;;;;5008185;28;20513;-54
2023/09/28 12:01:43;;;;;;;3.90;2.47;;;;;;;;;;5010302;28;20858;-54
2023/09/28 12:04:10;;;;;;;4.20;3.20;;;;;;;;;;5012190;28;20514;-54
2023/09/28 12:06:38;;;;;;;6.00;3.20;;;;;;;;;;5010407;28;20767;-54
2023/09/28 12:09:06;;;;;;;3.80;2.90;;;;;;;;;;5013290;28;20435;-54
2023/09/28 12:11:34;;;;;;;3.50;2.70;;;;;;;;;;5012303;28;20561;-54
2023/09/28 12:14:02;;;;;;;5.70;3.30;;;;;;;;;;5012145;28;20962;-54
2023/09/28 12:16:30;;;;;;;4.60;2.43;;;;;;;;;;5011714;28;20478;-54
2023/09/28 12:18:57;;;;;;;6.83;3.17;;;;;;;;;;5009865;28;20473;-54
2023/09/28 12:21:25;;;;;;;3.77;2.80;;;;;;;;;;5012362;28;20525;-54
2023/09/28 12:23:52;;;;;;;4.33;2.43;;;;;;;;;;5011828;28;20504;-54
2023/09/28 12:26:19;;;;;;;3.43;3.00;;;;;;;;;;5012327;28;20455;-54
2023/09/28 12:28:47;;;;;;;3.40;2.77;;;;;;;;;;5010252;28;20505;-54
2023/09/28 12:31:17;;;;;;;5.50;3.20;;;;;;;;;;5010110;28;20463;-54
2023/09/28 12:33:45;;;;;;;4.67;3.07;;;;;;;;;;5010658;28;20836;-54
2023/09/28 12:36:13;;;;;;;5.30;3.10;;;;;;;;;;5012258;28;20483;-54
2023/09/28 12:38:41;;;;;;;7.07;2.97;;;;;;;;;;5012228;28;20444;-54
2023/09/28 12:41:09;;;;;;;4.57;2.90;;;;;;;;;;5011382;28;21082;-54
2023/09/28 12:43:36;;;;;;;5.43;3.30;;;;;;;;;;5011695;28;20443;-54
2023/09/28 12:46:04;;;;;;;4.13;3.13;;;;;;;;;;5011804;28;20444;-54
2023/09/28 12:48:33;;;;;;;4.60;3.00;;;;;;;;;;5012020;28;20522;-54
2023/09/28 12:51:00;;;;;;;8.67;3.60;;;;;;;;;;5011266;28;21001;-54
2023/09/28 12:53:27;;;;;;;4.30;2.80;;;;;;;;;;5011415;28;20439;-54
2023/09/28 12:55:55;;;;;;;4.17;3.70;;;;;;;;;;5012025;28;21049;-54
2023/09/28 12:58:22;;;;;;;4.47;3.73;;;;;;;;;;5012444;28;20581;-54
2023/09/28 13:00:49;;;;;;;6.10;3.90;;;;;;;;;;5011184;28;20513;-54
2023/09/28 13:03:18;;;;;;;5.00;2.70;;;;;;;;;;5011814;28;20447;-53
2023/09/28 13:05:47;;;;;;;6.27;3.80;;;;;;;;;;5011405;28;20885;-54
2023/09/28 13:08:15;;;;;;;4.00;3.60;;;;;;;;;;5012013;28;20837;-54
2023/09/28 13:10:42;;;;;;;27.40;5.10;;;;;;;;;;5010448;28;20451;-54
2023/09/28 13:13:10;;;;;;;6.63;3.43;;;;;;;;;;5010975;28;20443;-54
2023/09/28 13:15:38;;;;;;;10.80;4.10;;;;;;;;;;5012068;28;20513;-54
2023/09/28 13:18:11;;;;;;;5.30;3.53;;;;;;;;;;5011631;28;20509;-54
2023/09/28 13:20:39;;;;;;;6.07;3.70;;;;;;;;;;4991498;28;20475;-54
2023/09/28 13:23:09;;;;;;;4.17;3.40;;;;;;;;;;4990859;28;20444;-54
2023/09/28 13:25:38;;;;;;;4.50;3.57;;;;;;;;;;4991565;28;20527;-54
2023/09/28 13:28:08;;;;;;;5.80;4.10;;;;;;;;;;4991261;28;20802;-54
2023/09/28 13:30:38;;;;;;;4.27;3.53;;;;;;;;;;4991023;28;20853;-54
2023/09/28 13:33:06;;;;;;;6.20;3.63;;;;;;;;;;4991462;28;20955;-54
2023/09/28 13:35:33;;;;;;;4.73;3.70;;;;;;;;;;5004455;28;20447;-54
2023/09/28 13:38:02;;;;;;;6.57;4.50;;;;;;;;;;5011748;28;20885;-54
2023/09/28 13:40:34;;;;;;;4.50;4.07;;;;;;;;;;5011421;28;20451;-54
2023/09/28 13:43:04;;;;;;;6.57;4.40;;;;;;;;;;5011897;28;20499;-54
2023/09/28 13:45:32;;;;;;;4.90;4.00;;;;;;;;;;5011425;28;20449;-54
2023/09/28 13:48:00;;;;;;;10.63;5.70;;;;;;;;;;5011509;28;20443;-54
2023/09/28 13:50:28;;;;;;;10.17;4.60;;;;;;;;;;5010952;28;20447;-54
2023/09/28 13:52:55;;;;;;;4.13;3.60;;;;;;;;;;5011208;28;20474;-54
2023/09/28 13:55:23;;;;;;;5.30;3.60;;;;;;;;;;5011051;28;20462;-55
2023/09/28 13:57:52;;;;;;;6.10;4.50;;;;;;;;;;5010819;28;20857;-54
2023/09/28 14:00:29;;;;;;;5.30;4.03;;;;;;;;;;5010555;28;20943;-54
2023/09/28 14:02:56;;;;;;;6.43;4.47;;;;;;;;;;5011158;28;20469;-54
2023/09/28 14:05:24;;;;;;;8.70;4.90;;;;;;;;;;5010774;28;20502;-54
2023/09/28 14:07:53;;;;;;;8.53;4.53;;;;;;;;;;5011038;28;20450;-54
2023/09/28 14:10:20;;;;;;;4.90;3.80;;;;;;;;;;5010228;28;20562;-54
2023/09/28 14:12:48;;;;;;;4.13;3.70;;;;;;;;;;5010936;28;20467;-54
2023/09/28 14:15:17;;;;;;;3.67;3.27;;;;;;;;;;5010559;28;20951;-54
2023/09/28 14:17:44;;;;;;;4.70;3.57;;;;;;;;;;5010761;28;20585;-54
2023/09/28 14:20:12;;;;;;;7.90;3.73;;;;;;;;;;5010519;28;20999;-54
2023/09/28 14:22:40;;;;;;;6.57;3.40;;;;;;;;;;5010670;28;20787;-55
2023/09/28 14:25:08;;;;;;;14.10;5.20;;;;;;;;;;5010522;28;20451;-55
2023/09/28 14:27:36;;;;;;;10.60;4.93;;;;;;;;;;5010922;28;20443;-55
2023/09/28 14:30:03;;;;;;;10.00;5.60;;;;;;;;;;5010307;28;20447;-55
2023/09/28 14:32:33;;;;;;;10.40;4.97;;;;;;;;;;5010465;28;20478;-55
2023/09/28 14:35:01;;;;;;;11.40;6.87;;;;;;;;;;5010426;28;20959;-55
2023/09/28 14:37:28;;;;;;;4.20;3.30;;;;;;;;;;5010008;28;20868;-56
2023/09/28 14:39:56;;;;;;;5.87;3.50;;;;;;;;;;5010484;28;20864;-55
2023/09/28 14:42:23;;;;;;;7.50;3.60;;;;;;;;;;5010210;28;20503;-55
2023/09/28 14:44:51;;;;;;;6.67;3.63;;;;;;;;;;5010398;28;20447;-55
2023/09/28 14:47:19;;;;;;;4.87;3.03;;;;;;;;;;5010206;28;20525;-55